createdAt,value
2023-05-05T00:00:12.231Z,9.23
2023-05-05T00:02:39.838Z,7.00
2023-05-05T00:05:07.358Z,7.55
2023-05-05T00:07:34.026Z,7.32
2023-05-05T00:10:00.760Z,7.97
2023-05-05T00:12:27.390Z,7.20
2023-05-05T00:14:54.040Z,6.15
2023-05-05T00:17:20.647Z,7.57
2023-05-05T00:19:47.335Z,7.07
2023-05-05T00:22:14.030Z,9.95
2023-05-05T00:24:40.812Z,6.47
2023-05-05T00:27:07.510Z,7.90
2023-05-05T00:29:34.227Z,6.90
2023-05-05T00:32:01.452Z,9.68
2023-05-05T00:34:28.110Z,7.50
2023-05-05T00:36:54.706Z,7.75
2023-05-05T00:39:21.344Z,8.07
2023-05-05T00:41:47.970Z,8.73
2023-05-05T00:44:14.724Z,10.73
2023-05-05T00:46:43.091Z,9.18
2023-05-05T00:49:10.184Z,7.18
2023-05-05T00:51:36.918Z,6.43
2023-05-05T00:54:03.663Z,8.68
2023-05-05T00:56:30.786Z,7.82
2023-05-05T00:58:58.418Z,8.20
2023-05-05T01:01:25.230Z,6.82
2023-05-05T01:03:52.067Z,8.32
2023-05-05T01:06:40.685Z,6.75
2023-05-05T01:09:13.090Z,5.63
2023-05-05T01:14:16.894Z,7.30
2023-05-05T01:16:51.359Z,9.10
2023-05-05T01:19:45.391Z,5.30
2023-05-05T01:22:14.939Z,6.97
2023-05-05T01:25:03.370Z,8.02
2023-05-05T01:27:48.254Z,9.35
2023-05-05T01:30:46.543Z,6.55
2023-05-05T01:33:18.025Z,7.72
2023-05-05T01:35:50.100Z,6.85
2023-05-05T01:38:21.188Z,8.00
2023-05-05T01:41:00.841Z,6.28
2023-05-05T01:43:30.719Z,8.45
2023-05-05T01:45:59.274Z,6.97
2023-05-05T01:48:26.376Z,8.20
2023-05-05T01:50:53.928Z,6.68
2023-05-05T01:53:23.024Z,6.22
2023-05-05T01:55:50.543Z,6.80
2023-05-05T01:58:18.328Z,9.10
2023-05-05T02:00:45.644Z,9.38
2023-05-05T02:03:14.860Z,5.97
2023-05-05T02:05:43.459Z,8.18
2023-05-05T02:08:11.410Z,7.50
2023-05-05T02:10:42.824Z,7.95
2023-05-05T02:13:12.384Z,6.80
2023-05-05T02:15:40.488Z,6.75
2023-05-05T02:18:09.869Z,7.80
2023-05-05T02:20:38.788Z,7.10
2023-05-05T02:23:07.737Z,7.13
2023-05-05T02:25:45.624Z,8.20
2023-05-05T02:28:36.193Z,7.28
2023-05-05T02:31:03.544Z,6.20
2023-05-05T02:33:33.723Z,7.50
2023-05-05T02:36:09.826Z,7.63
2023-05-05T02:38:40.190Z,5.93
2023-05-05T02:41:11.237Z,6.55
2023-05-05T02:43:40.924Z,8.32
2023-05-05T02:46:07.806Z,6.32
2023-05-05T02:48:34.924Z,9.27
2023-05-05T02:51:01.588Z,8.15
2023-05-05T02:53:29.023Z,10.05
2023-05-05T02:56:06.936Z,6.13
2023-05-05T02:58:51.848Z,8.68
2023-05-05T03:01:30.367Z,6.78
2023-05-05T03:04:06.863Z,6.70
2023-05-05T03:06:40.524Z,5.68
2023-05-05T03:09:20.728Z,7.28
2023-05-05T03:11:50.937Z,7.07
2023-05-05T03:14:21.070Z,7.25
2023-05-05T03:16:49.290Z,6.35
2023-05-05T03:19:21.302Z,6.88
2023-05-05T03:21:48.316Z,8.18
2023-05-05T03:24:16.922Z,6.13
2023-05-05T03:26:45.045Z,6.50
2023-05-05T03:29:12.485Z,7.10
2023-05-05T03:31:39.334Z,6.07
2023-05-05T03:34:07.201Z,7.03
2023-05-05T03:36:35.192Z,7.22
2023-05-05T03:39:01.803Z,6.57
2023-05-05T03:41:28.527Z,6.50
2023-05-05T03:43:55.198Z,9.45
2023-05-05T03:46:21.947Z,7.60
2023-05-05T03:48:48.676Z,7.00
2023-05-05T03:51:15.671Z,9.02
2023-05-05T03:53:42.422Z,6.65
2023-05-05T03:56:09.266Z,8.15
2023-05-05T03:58:36.007Z,7.43
2023-05-05T04:01:03.853Z,8.95
2023-05-05T04:03:30.767Z,8.60
2023-05-05T04:05:57.509Z,9.60
2023-05-05T04:08:24.253Z,7.30
2023-05-05T04:10:51.117Z,6.63
2023-05-05T04:13:17.833Z,9.15
2023-05-05T04:15:48.279Z,7.10
2023-05-05T04:18:15.203Z,6.20
2023-05-05T04:20:41.945Z,7.55
2023-05-05T04:23:08.618Z,9.05
2023-05-05T04:25:35.299Z,10.50
2023-05-05T04:28:01.951Z,16.88
2023-05-05T04:30:28.849Z,15.88
2023-05-05T04:32:55.635Z,12.40
2023-05-05T04:35:22.427Z,11.38
2023-05-05T04:37:49.351Z,9.40
2023-05-05T04:40:16.187Z,9.18
2023-05-05T04:42:42.926Z,8.65
2023-05-05T04:45:10.191Z,8.35
2023-05-05T04:47:38.042Z,9.05
2023-05-05T04:50:06.084Z,8.48
2023-05-05T04:52:33.140Z,7.40
2023-05-05T04:54:59.939Z,9.77
2023-05-05T04:57:26.729Z,10.30
2023-05-05T04:59:53.450Z,8.55
2023-05-05T05:02:20.571Z,9.45
2023-05-05T05:04:47.301Z,10.52
2023-05-05T05:07:15.028Z,9.10
2023-05-05T05:09:41.680Z,11.75
2023-05-05T05:12:09.676Z,11.00
2023-05-05T05:14:39.837Z,12.80
2023-05-05T05:17:06.942Z,10.57
2023-05-05T05:19:33.818Z,11.20
2023-05-05T05:22:00.565Z,11.30
2023-05-05T05:24:27.262Z,13.93
2023-05-05T05:26:53.985Z,10.75
2023-05-05T05:29:20.704Z,9.68
2023-05-05T05:31:47.427Z,11.15
2023-05-05T05:34:14.108Z,9.30
2023-05-05T05:36:40.828Z,11.52
2023-05-05T05:39:08.028Z,11.65
2023-05-05T05:41:34.743Z,9.15
2023-05-05T05:44:01.369Z,11.32
2023-05-05T05:46:27.992Z,12.23
2023-05-05T05:48:54.717Z,10.20
2023-05-05T05:51:21.381Z,9.85
2023-05-05T05:53:48.015Z,12.40
2023-05-05T05:56:14.851Z,11.27
2023-05-05T05:58:42.422Z,11.55
2023-05-05T06:01:09.137Z,9.88
2023-05-05T06:03:36.014Z,10.60
2023-05-05T06:06:02.825Z,10.93
2023-05-05T06:08:29.476Z,10.23
2023-05-05T06:10:56.216Z,14.73
2023-05-05T06:13:22.900Z,11.38
2023-05-05T06:15:49.623Z,10.55
2023-05-05T06:18:16.343Z,11.98
2023-05-05T06:20:43.533Z,12.30
2023-05-05T06:23:10.332Z,10.85
2023-05-05T06:25:37.580Z,10.05
2023-05-05T06:28:05.543Z,9.80
2023-05-05T06:30:32.733Z,9.55
2023-05-05T06:32:59.668Z,9.20
2023-05-05T06:35:26.382Z,8.35
2023-05-05T06:37:54.354Z,6.95
2023-05-05T06:40:21.425Z,9.30
2023-05-05T06:42:48.050Z,8.27
2023-05-05T06:45:14.978Z,8.85
2023-05-05T06:47:42.428Z,9.38
2023-05-05T06:50:09.734Z,9.52
2023-05-05T06:52:36.596Z,11.80
2023-05-05T06:55:04.425Z,8.55
2023-05-05T06:57:31.208Z,10.70
2023-05-05T06:59:57.902Z,9.35
2023-05-05T07:02:26.644Z,11.05
2023-05-05T07:04:55.774Z,13.13
2023-05-05T07:07:22.576Z,11.30
2023-05-05T07:09:49.288Z,10.23
2023-05-05T07:12:16.005Z,8.95
2023-05-05T07:14:42.732Z,12.27
2023-05-05T07:17:09.469Z,9.32
2023-05-05T07:19:36.156Z,10.52
2023-05-05T07:22:03.054Z,9.68
2023-05-05T07:24:29.725Z,10.98
2023-05-05T07:26:56.453Z,10.98
2023-05-05T07:29:23.085Z,9.73
2023-05-05T07:31:49.767Z,8.88
2023-05-05T07:34:16.501Z,9.73
2023-05-05T07:36:43.944Z,10.63
2023-05-05T07:39:11.041Z,9.77
2023-05-05T07:41:37.769Z,8.13
2023-05-05T07:44:04.544Z,8.82
2023-05-05T07:46:31.304Z,8.95
2023-05-05T07:48:58.079Z,7.85
2023-05-05T07:51:25.070Z,7.72
2023-05-05T07:53:51.787Z,7.85
2023-05-05T07:56:19.900Z,10.43
2023-05-05T07:58:48.255Z,9.10
2023-05-05T08:01:14.894Z,7.93
2023-05-05T08:03:41.883Z,8.68
2023-05-05T08:06:09.957Z,8.63
2023-05-05T08:08:36.830Z,10.20
2023-05-05T08:11:03.882Z,9.48
2023-05-05T08:13:30.692Z,7.45
2023-05-05T08:15:57.362Z,10.90
2023-05-05T08:18:24.611Z,9.32
2023-05-05T08:20:51.882Z,9.38
2023-05-05T08:23:18.637Z,10.38
2023-05-05T08:25:45.430Z,7.43
2023-05-05T08:28:12.077Z,9.77
2023-05-05T08:30:39.120Z,7.18
2023-05-05T08:33:06.064Z,7.65
2023-05-05T08:35:32.785Z,10.10
2023-05-05T08:37:59.446Z,7.22
2023-05-05T08:40:32.746Z,7.55
2023-05-05T08:42:59.921Z,8.85
2023-05-05T08:45:29.021Z,8.70
2023-05-05T08:48:01.707Z,6.18
2023-05-05T08:50:29.330Z,10.02
2023-05-05T08:53:11.420Z,8.65
2023-05-05T08:55:56.531Z,9.13
2023-05-05T08:58:23.621Z,8.35
2023-05-05T09:00:51.009Z,10.05
2023-05-05T09:03:18.289Z,7.95
2023-05-05T09:05:45.278Z,11.25
2023-05-05T09:08:11.950Z,7.47
2023-05-05T09:10:42.529Z,6.95
2023-05-05T09:13:09.333Z,7.13
2023-05-05T09:15:41.421Z,7.22
2023-05-05T09:20:40.255Z,5.95
2023-05-05T09:23:14.048Z,7.65
2023-05-05T09:25:42.865Z,9.60
2023-05-05T09:28:11.390Z,8.30
2023-05-05T09:30:39.569Z,7.90
2023-05-05T09:33:06.545Z,7.00
2023-05-05T09:35:51.287Z,8.50
2023-05-05T09:38:19.270Z,6.22
2023-05-05T09:40:48.500Z,7.80
2023-05-05T09:43:16.824Z,6.75
2023-05-05T09:45:43.860Z,7.88
2023-05-05T09:48:30.750Z,8.82
2023-05-05T09:50:58.740Z,8.07
2023-05-05T09:53:26.590Z,7.75
2023-05-05T09:55:56.269Z,7.32
2023-05-05T09:58:30.845Z,9.68
2023-05-05T10:00:58.813Z,11.25
2023-05-05T10:03:25.992Z,8.10
2023-05-05T10:05:57.618Z,8.73
2023-05-05T10:08:26.851Z,9.10
2023-05-05T10:10:58.275Z,11.82
2023-05-05T10:13:25.200Z,10.27
2023-05-05T10:15:55.285Z,9.82
2023-05-05T10:18:24.376Z,9.60
2023-05-05T10:20:57.615Z,11.05
2023-05-05T10:23:28.254Z,10.65
2023-05-05T10:26:02.027Z,11.40
2023-05-05T10:28:46.123Z,11.82
2023-05-05T10:31:35.730Z,11.50
2023-05-05T10:34:24.098Z,9.70
2023-05-05T10:36:52.005Z,9.40
2023-05-05T10:39:19.998Z,10.13
2023-05-05T10:41:48.131Z,10.13
2023-05-05T10:44:20.734Z,10.73
2023-05-05T10:46:48.470Z,11.15
2023-05-05T10:49:18.362Z,10.43
2023-05-05T10:52:12.117Z,11.68
2023-05-05T10:54:49.584Z,13.02
2023-05-05T10:57:23.896Z,12.55
2023-05-05T10:59:57.416Z,11.70
2023-05-05T11:02:42.998Z,16.63
2023-05-05T11:05:27.764Z,12.60
2023-05-05T11:08:14.878Z,10.73
2023-05-05T11:10:44.975Z,10.15
2023-05-05T11:13:14.993Z,11.10
2023-05-05T11:15:41.934Z,13.20
2023-05-05T11:18:37.749Z,10.57
2023-05-05T11:21:15.634Z,12.57
2023-05-05T11:23:47.250Z,12.90
2023-05-05T11:26:15.134Z,12.90
2023-05-05T11:29:01.939Z,12.30
2023-05-05T11:31:30.928Z,16.38
2023-05-05T11:34:36.230Z,9.93
2023-05-05T11:37:05.918Z,10.25
2023-05-05T11:39:40.365Z,10.55
2023-05-05T11:42:22.230Z,12.02
2023-05-05T11:44:49.152Z,10.95
2023-05-05T11:47:15.802Z,11.73
2023-05-05T11:49:42.469Z,13.02
2023-05-05T11:52:10.789Z,14.75
2023-05-05T11:54:41.362Z,13.20
2023-05-05T11:57:10.725Z,10.43
2023-05-05T11:59:50.643Z,11.68
2023-05-05T12:02:18.579Z,15.57
2023-05-05T12:04:46.785Z,12.85
2023-05-05T12:07:21.284Z,12.38
2023-05-05T12:09:49.309Z,15.77
2023-05-05T12:12:16.893Z,15.65
2023-05-05T12:14:47.097Z,15.40
2023-05-05T12:17:14.238Z,16.73
2023-05-05T12:19:51.892Z,16.17
2023-05-05T12:22:27.717Z,17.42
2023-05-05T12:24:59.243Z,16.08
2023-05-05T12:27:29.479Z,15.98
2023-05-05T12:29:57.651Z,16.77
2023-05-05T12:32:26.081Z,14.80
2023-05-05T12:34:54.386Z,17.90
2023-05-05T12:37:22.435Z,16.13
2023-05-05T12:39:50.102Z,16.50
2023-05-05T12:42:17.276Z,15.65
2023-05-05T12:44:44.822Z,15.60
2023-05-05T12:47:12.673Z,13.80
2023-05-05T12:49:50.156Z,15.02
2023-05-05T12:52:17.202Z,14.27
2023-05-05T12:54:56.588Z,15.82
2023-05-05T12:57:23.791Z,14.65
2023-05-05T12:59:51.625Z,18.58
2023-05-05T13:02:19.367Z,19.38
2023-05-05T13:04:53.994Z,18.77
2023-05-05T13:07:21.821Z,18.65
2023-05-05T13:09:49.795Z,14.55
2023-05-05T13:12:19.540Z,13.77
2023-05-05T13:14:46.727Z,12.82
2023-05-05T13:17:14.195Z,13.32
2023-05-05T13:19:42.541Z,12.60
2023-05-05T13:22:12.938Z,10.15
2023-05-05T13:24:50.826Z,14.50
2023-05-05T13:27:19.187Z,14.95
2023-05-05T13:29:46.084Z,14.77
2023-05-05T13:32:12.848Z,13.88
2023-05-05T13:34:39.643Z,15.38
2023-05-05T13:37:06.667Z,14.88
2023-05-05T13:39:33.372Z,14.18
2023-05-05T13:42:00.013Z,14.82
2023-05-05T13:44:26.627Z,17.45
2023-05-05T13:46:53.317Z,17.58
2023-05-05T13:49:20.172Z,16.75
2023-05-05T13:51:47.115Z,17.92
2023-05-05T13:54:13.989Z,14.85
2023-05-05T13:56:40.674Z,14.40
2023-05-05T13:59:07.491Z,17.33
2023-05-05T14:01:34.206Z,19.95
2023-05-05T14:04:03.648Z,14.70
2023-05-05T14:06:32.596Z,15.63
2023-05-05T14:08:59.356Z,19.65
2023-05-05T14:11:25.996Z,17.08
2023-05-05T14:13:52.848Z,16.30
2023-05-05T14:16:23.301Z,16.88
2023-05-05T14:18:49.925Z,16.95
2023-05-05T14:21:16.718Z,17.17
2023-05-05T14:23:43.389Z,18.67
2023-05-05T14:26:10.052Z,16.55
2023-05-05T14:28:36.691Z,15.77
2023-05-05T14:31:03.500Z,15.90
2023-05-05T14:33:30.134Z,16.00
2023-05-05T14:35:56.864Z,15.25
2023-05-05T14:38:23.623Z,15.35
2023-05-05T14:40:50.398Z,16.08
2023-05-05T14:43:17.026Z,14.80
2023-05-05T14:45:44.293Z,14.60
2023-05-05T14:48:11.194Z,15.13
2023-05-05T14:50:39.815Z,14.98
2023-05-05T14:53:06.510Z,14.15
2023-05-05T14:55:33.250Z,15.88
2023-05-05T14:57:59.974Z,15.38
2023-05-05T15:00:26.871Z,13.38
2023-05-05T15:02:53.768Z,13.35
2023-05-05T15:05:20.584Z,14.38
2023-05-05T15:07:47.255Z,15.98
2023-05-05T15:10:13.989Z,15.93
2023-05-05T15:12:40.749Z,13.02
2023-05-05T15:15:08.601Z,14.63
2023-05-05T15:17:37.411Z,15.25
2023-05-05T15:20:06.271Z,13.43
2023-05-05T15:22:32.990Z,15.60
2023-05-05T15:24:59.699Z,16.63
2023-05-05T15:27:26.761Z,15.52
2023-05-05T15:29:54.361Z,16.70
2023-05-05T15:32:21.132Z,13.68
2023-05-05T15:34:50.111Z,13.82
2023-05-05T15:37:17.078Z,13.10
2023-05-05T15:39:43.706Z,11.73
2023-05-05T15:42:10.431Z,12.32
2023-05-05T15:44:37.121Z,12.45
2023-05-05T15:47:04.286Z,13.43
2023-05-05T15:49:31.068Z,12.35
2023-05-05T15:51:57.942Z,10.38
2023-05-05T15:54:24.680Z,10.02
2023-05-05T15:56:51.291Z,11.43
2023-05-05T15:59:19.257Z,11.13
2023-05-05T16:01:46.761Z,12.05
2023-05-05T16:04:13.839Z,11.88
2023-05-05T16:06:40.856Z,10.48
2023-05-05T16:09:07.689Z,10.32
2023-05-05T16:11:34.572Z,9.35
2023-05-05T16:14:01.261Z,8.95
2023-05-05T16:16:27.946Z,8.25
2023-05-05T16:18:55.198Z,9.18
2023-05-05T16:21:21.905Z,10.20
2023-05-05T16:23:48.627Z,7.40
2023-05-05T16:26:15.350Z,10.45
2023-05-05T16:28:42.039Z,9.93
2023-05-05T16:31:10.613Z,8.25
2023-05-05T16:33:43.436Z,10.55
2023-05-05T16:36:12.209Z,8.80
2023-05-05T16:38:42.213Z,10.18
2023-05-05T16:41:10.008Z,8.80
2023-05-05T16:43:37.220Z,9.27
2023-05-05T16:46:04.471Z,9.75
2023-05-05T16:48:31.180Z,11.18
2023-05-05T16:50:58.160Z,11.50
2023-05-05T16:53:25.023Z,12.85
2023-05-05T16:55:52.723Z,12.13
2023-05-05T16:58:25.221Z,11.55
2023-05-05T17:00:51.964Z,14.18
2023-05-05T17:03:20.253Z,12.27
2023-05-05T17:05:49.859Z,12.27
2023-05-05T17:08:18.257Z,11.85
2023-05-05T17:10:45.544Z,12.55
2023-05-05T17:13:13.421Z,13.45
2023-05-05T17:15:40.924Z,13.25
2023-05-05T17:18:08.417Z,12.85
2023-05-05T17:20:36.212Z,13.93
2023-05-05T17:23:03.232Z,12.63
2023-05-05T17:25:29.830Z,12.82
2023-05-05T17:27:56.730Z,13.88
2023-05-05T17:30:23.653Z,13.02
2023-05-05T17:32:50.356Z,14.00
2023-05-05T17:35:17.067Z,15.45
2023-05-05T17:37:44.032Z,13.18
2023-05-05T17:40:10.869Z,15.02
2023-05-05T17:42:38.200Z,11.43
2023-05-05T17:45:05.336Z,21.30
2023-05-05T17:47:32.076Z,17.33
2023-05-05T17:49:59.348Z,18.92
2023-05-05T17:52:26.019Z,15.60
2023-05-05T17:54:52.687Z,19.90
2023-05-05T17:57:21.084Z,18.65
2023-05-05T17:59:49.609Z,20.67
2023-05-05T18:02:16.901Z,17.80
2023-05-05T18:04:43.723Z,17.35
2023-05-05T18:07:12.128Z,12.70
2023-05-05T18:09:39.291Z,16.42
2023-05-05T18:12:06.863Z,16.10
2023-05-05T18:14:33.936Z,14.63
2023-05-05T18:17:01.425Z,15.13
2023-05-05T18:19:28.163Z,12.80
2023-05-05T18:21:55.081Z,14.75
2023-05-05T18:24:21.759Z,13.82
2023-05-05T18:26:50.488Z,13.93
2023-05-05T18:29:18.450Z,14.07
2023-05-05T18:31:48.604Z,14.52
2023-05-05T18:34:16.643Z,15.80
2023-05-05T18:36:43.570Z,15.93
2023-05-05T18:39:10.331Z,15.48
2023-05-05T18:41:37.051Z,15.55
2023-05-05T18:44:03.879Z,14.43
2023-05-05T18:46:30.686Z,13.35
2023-05-05T18:48:57.514Z,15.45
2023-05-05T18:51:24.226Z,16.77
2023-05-05T18:53:50.846Z,17.35
2023-05-05T18:56:17.469Z,12.63
2023-05-05T18:58:44.154Z,13.98
2023-05-05T19:01:10.876Z,14.32
2023-05-05T19:03:37.587Z,15.00
2023-05-05T19:06:07.597Z,13.77
2023-05-05T19:08:34.327Z,15.70
2023-05-05T19:11:01.051Z,14.70
2023-05-05T19:13:27.769Z,14.88
2023-05-05T19:15:57.041Z,14.93
2023-05-05T19:18:24.564Z,14.30
2023-05-05T19:20:51.210Z,13.07
2023-05-05T19:23:18.066Z,12.13
2023-05-05T19:25:44.739Z,11.38
2023-05-05T19:28:12.157Z,12.98
2023-05-05T19:30:38.873Z,12.68
2023-05-05T19:33:05.774Z,12.55
2023-05-05T19:35:32.497Z,13.23
2023-05-05T19:37:59.744Z,12.82
2023-05-05T19:40:26.416Z,12.57
2023-05-05T19:42:53.281Z,13.82
2023-05-05T19:45:20.078Z,12.30
2023-05-05T19:47:46.754Z,14.65
2023-05-05T19:50:15.385Z,13.95
2023-05-05T19:52:42.184Z,12.57
2023-05-05T19:55:13.236Z,14.40
2023-05-05T19:57:40.520Z,13.20
2023-05-05T20:00:10.423Z,11.73
2023-05-05T20:02:40.917Z,11.18
2023-05-05T20:05:08.061Z,11.45
2023-05-05T20:07:34.844Z,11.25
2023-05-05T20:10:01.558Z,11.60
2023-05-05T20:12:28.251Z,10.85
2023-05-05T20:14:54.935Z,10.70
2023-05-05T20:17:21.736Z,12.00
2023-05-05T20:19:48.677Z,9.73
2023-05-05T20:22:15.355Z,9.07
2023-05-05T20:24:41.966Z,7.32
2023-05-05T20:27:08.731Z,8.75
2023-05-05T20:29:35.381Z,8.43
2023-05-05T20:32:02.151Z,8.05
2023-05-05T20:34:28.809Z,7.93
2023-05-05T20:36:55.629Z,7.75
2023-05-05T20:39:22.300Z,8.60
2023-05-05T20:41:48.982Z,8.13
2023-05-05T20:44:15.778Z,9.07
2023-05-05T20:46:42.670Z,9.35
2023-05-05T20:49:09.288Z,10.07
2023-05-05T20:51:36.165Z,11.38
2023-05-05T20:54:03.119Z,11.45
2023-05-05T20:56:29.765Z,9.60
2023-05-05T20:58:56.798Z,11.25
2023-05-05T21:01:23.635Z,10.38
2023-05-05T21:03:50.402Z,9.85
2023-05-05T21:06:19.365Z,10.43
2023-05-05T21:08:47.151Z,9.77
2023-05-05T21:11:13.875Z,9.45
2023-05-05T21:13:40.498Z,6.55
2023-05-05T21:16:07.302Z,8.38
2023-05-05T21:18:34.044Z,9.93
2023-05-05T21:21:01.217Z,10.52
2023-05-05T21:23:27.886Z,10.70
2023-05-05T21:25:54.612Z,10.40
2023-05-05T21:28:21.218Z,10.25
2023-05-05T21:31:10.107Z,10.07
2023-05-05T21:33:37.541Z,10.88
2023-05-05T21:36:04.828Z,8.30
2023-05-05T21:38:31.459Z,9.40
2023-05-05T21:40:58.653Z,10.02
2023-05-05T21:43:31.060Z,9.55
2023-05-05T21:45:59.348Z,11.32
2023-05-05T21:48:25.947Z,8.73
2023-05-05T21:50:53.307Z,8.65
2023-05-05T21:53:19.939Z,8.20
2023-05-05T21:55:46.939Z,10.32
2023-05-05T21:58:13.986Z,13.43
2023-05-05T22:00:42.191Z,10.88
2023-05-05T22:03:09.685Z,11.60
2023-05-05T22:05:36.442Z,10.98
2023-05-05T22:08:03.152Z,12.13
2023-05-05T22:10:29.749Z,11.13
2023-05-05T22:12:56.896Z,10.77
2023-05-05T22:15:25.417Z,11.00
2023-05-05T22:17:54.207Z,10.18
2023-05-05T22:20:21.651Z,12.43
2023-05-05T22:22:48.295Z,9.93
2023-05-05T22:25:14.973Z,9.27
2023-05-05T22:27:41.636Z,12.73
2023-05-05T22:30:08.871Z,11.30
2023-05-05T22:32:35.673Z,11.32
2023-05-05T22:35:02.398Z,10.10
2023-05-05T22:37:29.064Z,10.68
2023-05-05T22:39:55.752Z,8.20
2023-05-05T22:42:22.370Z,8.55
2023-05-05T22:44:52.773Z,8.32
2023-05-05T22:47:19.422Z,9.70
2023-05-05T22:49:46.228Z,7.57
2023-05-05T22:52:13.629Z,7.32
2023-05-05T22:54:40.325Z,6.30
2023-05-05T22:57:07.100Z,7.18
2023-05-05T22:59:33.731Z,7.22
2023-05-05T23:02:00.362Z,6.15
2023-05-05T23:04:27.118Z,4.88
2023-05-05T23:06:53.846Z,6.93
2023-05-05T23:09:20.835Z,6.88
2023-05-05T23:11:47.489Z,6.82
2023-05-05T23:14:14.205Z,6.20
2023-05-05T23:16:40.870Z,7.43
2023-05-05T23:19:07.487Z,7.03
2023-05-05T23:21:41.847Z,7.43
2023-05-05T23:24:12.406Z,6.25
2023-05-05T23:26:39.011Z,5.70
2023-05-05T23:29:05.950Z,5.05
2023-05-05T23:31:32.575Z,5.88
2023-05-05T23:33:59.197Z,5.72
2023-05-05T23:36:26.502Z,5.13
2023-05-05T23:38:53.219Z,5.22
2023-05-05T23:41:19.824Z,4.70
2023-05-05T23:43:46.778Z,4.63
2023-05-05T23:46:13.503Z,3.65
2023-05-05T23:48:40.145Z,4.95
2023-05-05T23:51:06.862Z,5.25
2023-05-05T23:53:33.564Z,4.55
2023-05-05T23:56:00.332Z,3.67
2023-05-05T23:58:26.992Z,4.15
